Yancey Mills, Virginia
Current Conditions -  °F | °C
As of 12:35 AM on Thursday 23 Oct 2014 (Local Time) from KW13 Reporting Station
Overcast Overcast  
Wind Chill: 47°   Ceiling: 3600
Heat Index: 47°   Visibility: 10mi
Dew Point: 39°   Wind: 3mph
Humidity: 76%   Direction: 310°NW
Pressure: 30.04"   Gusts: NA
Location:  38.1379°N, 78.7036°W
Report Text: KW13 230435Z AUTO 31003KT 10SM OVC036 08/04 A3004 RMK AO1 T00810041
Loading
Personal Weather Stations






























Interactive Weather Map
Tropical Storm Tracking
New forecast layout! Learn more

10-Day Weather Forecast

Advertisements
Track Severe Weather on mobile